sensor_id;sensor_type;location;lat;lon;timestamp;temperature;humidity
152;DHT22;68;48.792;9.164;2023-01-25T00:01:52;2.00;49.60
152;DHT22;68;48.792;9.164;2023-01-25T00:04:19;2.00;48.10
152;DHT22;68;48.792;9.164;2023-01-25T00:06:46;2.00;47.80
152;DHT22;68;48.792;9.164;2023-01-25T00:09:13;2.10;47.10
152;DHT22;68;48.792;9.164;2023-01-25T00:11:41;2.00;48.50
152;DHT22;68;48.792;9.164;2023-01-25T00:14:10;2.10;49.20
152;DHT22;68;48.792;9.164;2023-01-25T00:16:37;2.00;50.20
152;DHT22;68;48.792;9.164;2023-01-25T00:19:04;2.30;50.40
152;DHT22;68;48.792;9.164;2023-01-25T00:21:31;2.20;52.60
152;DHT22;68;48.792;9.164;2023-01-25T00:23:58;2.00;54.00
152;DHT22;68;48.792;9.164;2023-01-25T00:26:25;2.00;51.00
152;DHT22;68;48.792;9.164;2023-01-25T00:28:53;2.00;49.60
152;DHT22;68;48.792;9.164;2023-01-25T00:31:31;2.10;52.20
152;DHT22;68;48.792;9.164;2023-01-25T00:34:06;2.10;50.80
152;DHT22;68;48.792;9.164;2023-01-25T00:36:48;2.10;50.80
152;DHT22;68;48.792;9.164;2023-01-25T00:39:16;2.10;50.80
152;DHT22;68;48.792;9.164;2023-01-25T00:41:43;2.10;52.80
152;DHT22;68;48.792;9.164;2023-01-25T00:44:10;2.00;51.90
152;DHT22;68;48.792;9.164;2023-01-25T00:46:38;2.00;50.40
152;DHT22;68;48.792;9.164;2023-01-25T00:49:05;2.10;52.30
152;DHT22;68;48.792;9.164;2023-01-25T00:51:32;2.00;53.50
152;DHT22;68;48.792;9.164;2023-01-25T00:53:58;2.00;51.10
152;DHT22;68;48.792;9.164;2023-01-25T00:56:25;2.10;50.60
152;DHT22;68;48.792;9.164;2023-01-25T00:58:52;2.20;52.60
152;DHT22;68;48.792;9.164;2023-01-25T01:01:18;2.10;53.70
152;DHT22;68;48.792;9.164;2023-01-25T01:03:47;2.10;54.50
152;DHT22;68;48.792;9.164;2023-01-25T01:06:13;2.00;54.10
152;DHT22;68;48.792;9.164;2023-01-25T01:08:41;2.10;52.70
152;DHT22;68;48.792;9.164;2023-01-25T01:11:09;2.10;52.80
152;DHT22;68;48.792;9.164;2023-01-25T01:13:36;2.10;53.30
152;DHT22;68;48.792;9.164;2023-01-25T01:16:06;2.20;55.90
152;DHT22;68;48.792;9.164;2023-01-25T01:18:37;2.00;55.70
152;DHT22;68;48.792;9.164;2023-01-25T01:21:06;2.00;55.90
152;DHT22;68;48.792;9.164;2023-01-25T01:23:33;2.00;55.90
152;DHT22;68;48.792;9.164;2023-01-25T01:26:00;2.00;54.50
152;DHT22;68;48.792;9.164;2023-01-25T01:28:27;2.10;55.40
152;DHT22;68;48.792;9.164;2023-01-25T01:30:58;2.10;57.60
152;DHT22;68;48.792;9.164;2023-01-25T01:33:25;2.40;58.20
152;DHT22;68;48.792;9.164;2023-01-25T01:35:52;2.50;72.50
152;DHT22;68;48.792;9.164;2023-01-25T01:38:20;2.50;67.20
152;DHT22;68;48.792;9.164;2023-01-25T01:40:48;2.40;70.00
152;DHT22;68;48.792;9.164;2023-01-25T01:43:17;2.30;69.80
152;DHT22;68;48.792;9.164;2023-01-25T01:45:54;2.40;70.10
152;DHT22;68;48.792;9.164;2023-01-25T01:48:30;2.20;69.80
152;DHT22;68;48.792;9.164;2023-01-25T01:51:01;2.20;68.00
152;DHT22;68;48.792;9.164;2023-01-25T01:53:31;2.20;66.20
152;DHT22;68;48.792;9.164;2023-01-25T01:56:02;2.20;64.70
152;DHT22;68;48.792;9.164;2023-01-25T01:58:32;2.40;64.10
152;DHT22;68;48.792;9.164;2023-01-25T02:00:59;2.70;67.20
152;DHT22;68;48.792;9.164;2023-01-25T02:03:27;2.90;68.50
152;DHT22;68;48.792;9.164;2023-01-25T02:05:57;2.60;78.20
152;DHT22;68;48.792;9.164;2023-01-25T02:08:27;2.50;76.90
152;DHT22;68;48.792;9.164;2023-01-25T02:10:57;2.60;75.00
152;DHT22;68;48.792;9.164;2023-01-25T02:13:25;2.50;75.40
152;DHT22;68;48.792;9.164;2023-01-25T02:15:53;2.40;75.20
152;DHT22;68;48.792;9.164;2023-01-25T02:18:21;2.20;66.60
152;DHT22;68;48.792;9.164;2023-01-25T02:20:51;2.20;66.20
152;DHT22;68;48.792;9.164;2023-01-25T02:23:24;2.00;58.80
152;DHT22;68;48.792;9.164;2023-01-25T02:25:54;1.90;53.50
152;DHT22;68;48.792;9.164;2023-01-25T02:28:24;1.90;50.60
152;DHT22;68;48.792;9.164;2023-01-25T02:30:52;1.90;49.80
152;DHT22;68;48.792;9.164;2023-01-25T02:33:22;1.90;47.60
152;DHT22;68;48.792;9.164;2023-01-25T02:35:53;1.90;46.30
152;DHT22;68;48.792;9.164;2023-01-25T02:38:21;1.90;45.90
152;DHT22;68;48.792;9.164;2023-01-25T02:40:52;1.90;45.70
152;DHT22;68;48.792;9.164;2023-01-25T02:43:22;1.90;45.60
152;DHT22;68;48.792;9.164;2023-01-25T02:45:55;1.90;45.10
152;DHT22;68;48.792;9.164;2023-01-25T02:48:25;1.90;44.10
152;DHT22;68;48.792;9.164;2023-01-25T02:50:51;1.90;44.20
152;DHT22;68;48.792;9.164;2023-01-25T02:53:18;1.90;44.90
152;DHT22;68;48.792;9.164;2023-01-25T02:55:45;1.90;45.00
152;DHT22;68;48.792;9.164;2023-01-25T02:58:11;1.90;44.20
152;DHT22;68;48.792;9.164;2023-01-25T03:00:39;1.90;44.30
152;DHT22;68;48.792;9.164;2023-01-25T03:03:06;1.90;44.00
152;DHT22;68;48.792;9.164;2023-01-25T03:05:33;1.90;44.70
152;DHT22;68;48.792;9.164;2023-01-25T03:08:00;1.90;43.10
152;DHT22;68;48.792;9.164;2023-01-25T03:10:26;1.90;43.00
152;DHT22;68;48.792;9.164;2023-01-25T03:12:53;1.90;43.70
152;DHT22;68;48.792;9.164;2023-01-25T03:15:20;1.90;43.90
152;DHT22;68;48.792;9.164;2023-01-25T03:17:48;2.10;44.50
152;DHT22;68;48.792;9.164;2023-01-25T03:20:15;2.00;47.60
152;DHT22;68;48.792;9.164;2023-01-25T03:22:42;2.00;47.20
152;DHT22;68;48.792;9.164;2023-01-25T03:25:09;2.00;49.10
152;DHT22;68;48.792;9.164;2023-01-25T03:27:36;2.30;48.50
152;DHT22;68;48.792;9.164;2023-01-25T03:30:03;2.20;54.50
152;DHT22;68;48.792;9.164;2023-01-25T03:32:30;2.20;60.90
152;DHT22;68;48.792;9.164;2023-01-25T03:34:58;2.30;55.30
152;DHT22;68;48.792;9.164;2023-01-25T03:37:25;2.30;56.10
152;DHT22;68;48.792;9.164;2023-01-25T03:39:54;2.30;59.90
152;DHT22;68;48.792;9.164;2023-01-25T03:42:21;2.10;60.30
152;DHT22;68;48.792;9.164;2023-01-25T03:44:48;2.00;56.30
152;DHT22;68;48.792;9.164;2023-01-25T03:47:16;1.90;51.70
152;DHT22;68;48.792;9.164;2023-01-25T03:49:42;1.90;48.20
152;DHT22;68;48.792;9.164;2023-01-25T03:52:10;1.80;45.90
152;DHT22;68;48.792;9.164;2023-01-25T03:54:37;1.80;43.40
152;DHT22;68;48.792;9.164;2023-01-25T03:57:04;1.80;42.20
152;DHT22;68;48.792;9.164;2023-01-25T03:59:31;1.90;41.60
152;DHT22;68;48.792;9.164;2023-01-25T04:01:57;1.80;41.20
152;DHT22;68;48.792;9.164;2023-01-25T04:04:24;1.80;40.10
152;DHT22;68;48.792;9.164;2023-01-25T04:06:51;1.80;38.20
152;DHT22;68;48.792;9.164;2023-01-25T04:09:19;1.80;37.10
152;DHT22;68;48.792;9.164;2023-01-25T04:11:48;1.80;34.90
152;DHT22;68;48.792;9.164;2023-01-25T04:14:15;1.70;32.90
152;DHT22;68;48.792;9.164;2023-01-25T04:16:42;1.70;30.90
152;DHT22;68;48.792;9.164;2023-01-25T04:19:08;1.70;30.30
152;DHT22;68;48.792;9.164;2023-01-25T04:21:35;1.70;29.80
152;DHT22;68;48.792;9.164;2023-01-25T04:24:02;1.70;29.30
152;DHT22;68;48.792;9.164;2023-01-25T04:26:30;1.70;29.60
152;DHT22;68;48.792;9.164;2023-01-25T04:28:57;1.70;30.20
152;DHT22;68;48.792;9.164;2023-01-25T04:31:24;1.70;30.00
152;DHT22;68;48.792;9.164;2023-01-25T04:33:50;1.70;30.70
152;DHT22;68;48.792;9.164;2023-01-25T04:36:17;1.70;30.80
152;DHT22;68;48.792;9.164;2023-01-25T04:38:44;1.70;32.10
152;DHT22;68;48.792;9.164;2023-01-25T04:41:11;1.70;32.80
152;DHT22;68;48.792;9.164;2023-01-25T04:43:39;1.80;33.90
152;DHT22;68;48.792;9.164;2023-01-25T04:46:05;1.80;35.20
152;DHT22;68;48.792;9.164;2023-01-25T04:48:32;1.80;39.90
152;DHT22;68;48.792;9.164;2023-01-25T04:50:59;1.80;41.20
152;DHT22;68;48.792;9.164;2023-01-25T04:53:26;1.80;42.10
152;DHT22;68;48.792;9.164;2023-01-25T04:55:52;1.90;43.40
152;DHT22;68;48.792;9.164;2023-01-25T04:58:19;1.90;44.50
152;DHT22;68;48.792;9.164;2023-01-25T05:00:47;1.90;46.90
152;DHT22;68;48.792;9.164;2023-01-25T05:03:14;1.90;49.50
152;DHT22;68;48.792;9.164;2023-01-25T05:05:44;1.90;50.10
152;DHT22;68;48.792;9.164;2023-01-25T05:08:11;2.00;50.80
152;DHT22;68;48.792;9.164;2023-01-25T05:10:38;1.90;55.20
152;DHT22;68;48.792;9.164;2023-01-25T05:13:04;1.90;54.80
152;DHT22;68;48.792;9.164;2023-01-25T05:15:31;2.00;55.40
152;DHT22;68;48.792;9.164;2023-01-25T05:17:59;2.00;57.20
152;DHT22;68;48.792;9.164;2023-01-25T05:20:26;1.90;64.10
152;DHT22;68;48.792;9.164;2023-01-25T05:22:53;1.90;62.80
152;DHT22;68;48.792;9.164;2023-01-25T05:25:19;1.90;64.40
152;DHT22;68;48.792;9.164;2023-01-25T05:28:04;1.90;64.00
152;DHT22;68;48.792;9.164;2023-01-25T05:30:31;1.90;64.40
152;DHT22;68;48.792;9.164;2023-01-25T05:32:59;1.90;65.10
152;DHT22;68;48.792;9.164;2023-01-25T05:35:26;1.90;66.30
152;DHT22;68;48.792;9.164;2023-01-25T05:37:55;1.80;65.80
152;DHT22;68;48.792;9.164;2023-01-25T05:40:23;1.90;64.70
152;DHT22;68;48.792;9.164;2023-01-25T05:42:53;1.90;64.90
152;DHT22;68;48.792;9.164;2023-01-25T05:45:20;2.00;64.90
152;DHT22;68;48.792;9.164;2023-01-25T05:47:51;2.00;68.90
152;DHT22;68;48.792;9.164;2023-01-25T05:50:19;1.90;69.00
152;DHT22;68;48.792;9.164;2023-01-25T05:52:46;1.90;68.90
152;DHT22;68;48.792;9.164;2023-01-25T05:55:13;1.90;68.90
152;DHT22;68;48.792;9.164;2023-01-25T05:57:39;1.90;67.40
152;DHT22;68;48.792;9.164;2023-01-25T06:00:08;1.90;66.30
152;DHT22;68;48.792;9.164;2023-01-25T06:02:35;2.20;66.10
152;DHT22;68;48.792;9.164;2023-01-25T06:05:01;2.20;67.40
152;DHT22;68;48.792;9.164;2023-01-25T06:07:32;2.20;72.90
152;DHT22;68;48.792;9.164;2023-01-25T06:10:00;2.10;72.70
152;DHT22;68;48.792;9.164;2023-01-25T06:12:27;2.00;72.70
152;DHT22;68;48.792;9.164;2023-01-25T06:14:54;2.00;72.60
152;DHT22;68;48.792;9.164;2023-01-25T06:17:21;1.90;72.30
152;DHT22;68;48.792;9.164;2023-01-25T06:19:48;1.90;73.00
152;DHT22;68;48.792;9.164;2023-01-25T06:22:14;1.80;72.90
152;DHT22;68;48.792;9.164;2023-01-25T06:24:43;1.90;71.50
152;DHT22;68;48.792;9.164;2023-01-25T06:27:09;1.90;73.20
152;DHT22;68;48.792;9.164;2023-01-25T06:29:37;1.90;75.30
152;DHT22;68;48.792;9.164;2023-01-25T06:32:04;1.90;75.20
152;DHT22;68;48.792;9.164;2023-01-25T06:34:30;1.90;76.50
152;DHT22;68;48.792;9.164;2023-01-25T06:36:57;1.90;77.10
152;DHT22;68;48.792;9.164;2023-01-25T06:39:24;1.90;77.60
152;DHT22;68;48.792;9.164;2023-01-25T06:41:52;2.00;78.70
152;DHT22;68;48.792;9.164;2023-01-25T06:44:19;2.00;78.70
152;DHT22;68;48.792;9.164;2023-01-25T06:46:46;2.30;79.40
152;DHT22;68;48.792;9.164;2023-01-25T06:49:13;2.20;84.90
152;DHT22;68;48.792;9.164;2023-01-25T06:51:39;2.00;84.90
152;DHT22;68;48.792;9.164;2023-01-25T06:54:06;2.00;83.90
152;DHT22;68;48.792;9.164;2023-01-25T06:56:33;2.10;84.30
152;DHT22;68;48.792;9.164;2023-01-25T06:59:01;2.40;84.80
152;DHT22;68;48.792;9.164;2023-01-25T07:01:27;2.30;88.00
152;DHT22;68;48.792;9.164;2023-01-25T07:03:56;2.30;88.30
152;DHT22;68;48.792;9.164;2023-01-25T07:06:24;2.40;89.80
152;DHT22;68;48.792;9.164;2023-01-25T07:08:52;2.30;90.30
152;DHT22;68;48.792;9.164;2023-01-25T07:11:18;2.10;91.00
152;DHT22;68;48.792;9.164;2023-01-25T07:13:46;2.00;89.00
152;DHT22;68;48.792;9.164;2023-01-25T07:16:16;2.00;87.50
152;DHT22;68;48.792;9.164;2023-01-25T07:18:43;2.00;87.80
152;DHT22;68;48.792;9.164;2023-01-25T07:21:11;1.90;87.40
152;DHT22;68;48.792;9.164;2023-01-25T07:23:38;2.00;86.80
152;DHT22;68;48.792;9.164;2023-01-25T07:26:13;2.00;86.70
152;DHT22;68;48.792;9.164;2023-01-25T07:28:40;2.00;87.10
152;DHT22;68;48.792;9.164;2023-01-25T07:31:07;2.00;86.60
152;DHT22;68;48.792;9.164;2023-01-25T07:33:35;2.00;87.30
152;DHT22;68;48.792;9.164;2023-01-25T07:36:03;1.90;86.40
152;DHT22;68;48.792;9.164;2023-01-25T07:38:30;1.90;86.30
152;DHT22;68;48.792;9.164;2023-01-25T07:40:57;1.90;86.60
152;DHT22;68;48.792;9.164;2023-01-25T07:43:24;2.00;87.60
152;DHT22;68;48.792;9.164;2023-01-25T07:45:51;2.10;87.90
152;DHT22;68;48.792;9.164;2023-01-25T07:48:19;2.10;88.80
152;DHT22;68;48.792;9.164;2023-01-25T07:50:47;2.10;90.30
152;DHT22;68;48.792;9.164;2023-01-25T07:53:34;2.10;89.80
152;DHT22;68;48.792;9.164;2023-01-25T07:56:01;2.10;88.80
152;DHT22;68;48.792;9.164;2023-01-25T07:58:28;2.00;90.80
152;DHT22;68;48.792;9.164;2023-01-25T08:00:55;2.00;90.90
152;DHT22;68;48.792;9.164;2023-01-25T08:03:21;2.00;90.80
152;DHT22;68;48.792;9.164;2023-01-25T08:05:49;2.00;90.70
152;DHT22;68;48.792;9.164;2023-01-25T08:08:16;2.00;91.40
152;DHT22;68;48.792;9.164;2023-01-25T08:10:43;2.00;91.40
152;DHT22;68;48.792;9.164;2023-01-25T08:13:10;2.10;91.70
152;DHT22;68;48.792;9.164;2023-01-25T08:15:36;2.10;92.60
152;DHT22;68;48.792;9.164;2023-01-25T08:18:04;2.00;92.00
152;DHT22;68;48.792;9.164;2023-01-25T08:20:30;2.00;91.40
152;DHT22;68;48.792;9.164;2023-01-25T08:22:58;2.10;91.10
152;DHT22;68;48.792;9.164;2023-01-25T08:27:52;2.10;92.50
152;DHT22;68;48.792;9.164;2023-01-25T08:30:19;2.20;92.00
152;DHT22;68;48.792;9.164;2023-01-25T08:32:46;2.20;92.40
152;DHT22;68;48.792;9.164;2023-01-25T08:35:13;2.10;91.70
152;DHT22;68;48.792;9.164;2023-01-25T08:37:39;2.20;92.00
152;DHT22;68;48.792;9.164;2023-01-25T08:40:09;2.10;91.40
152;DHT22;68;48.792;9.164;2023-01-25T08:42:38;2.00;90.00
152;DHT22;68;48.792;9.164;2023-01-25T08:45:08;2.00;87.90
152;DHT22;68;48.792;9.164;2023-01-25T08:47:35;1.90;85.50
152;DHT22;68;48.792;9.164;2023-01-25T08:50:01;2.00;84.20
152;DHT22;68;48.792;9.164;2023-01-25T08:52:28;2.10;84.60
152;DHT22;68;48.792;9.164;2023-01-25T08:54:55;2.00;86.30
152;DHT22;68;48.792;9.164;2023-01-25T08:57:23;2.00;85.60
152;DHT22;68;48.792;9.164;2023-01-25T08:59:50;2.20;86.50
152;DHT22;68;48.792;9.164;2023-01-25T09:02:17;2.00;89.40
152;DHT22;68;48.792;9.164;2023-01-25T09:04:45;2.30;88.30
152;DHT22;68;48.792;9.164;2023-01-25T09:07:12;2.40;90.50
152;DHT22;68;48.792;9.164;2023-01-25T09:09:39;2.50;91.60
152;DHT22;68;48.792;9.164;2023-01-25T09:12:08;2.40;94.30
152;DHT22;68;48.792;9.164;2023-01-25T09:14:36;2.20;92.60
152;DHT22;68;48.792;9.164;2023-01-25T09:17:04;2.40;91.10
152;DHT22;68;48.792;9.164;2023-01-25T09:19:31;2.80;91.70
152;DHT22;68;48.792;9.164;2023-01-25T09:21:58;3.00;94.40
152;DHT22;68;48.792;9.164;2023-01-25T09:26:52;2.60;97.30
152;DHT22;68;48.792;9.164;2023-01-25T09:29:18;2.40;95.90
152;DHT22;68;48.792;9.164;2023-01-25T09:31:46;2.30;95.40
152;DHT22;68;48.792;9.164;2023-01-25T09:34:14;2.50;94.80
152;DHT22;68;48.792;9.164;2023-01-25T09:36:41;2.30;96.40
152;DHT22;68;48.792;9.164;2023-01-25T09:39:08;2.10;95.20
152;DHT22;68;48.792;9.164;2023-01-25T09:42:10;2.00;92.60
152;DHT22;68;48.792;9.164;2023-01-25T09:44:55;2.00;92.10
152;DHT22;68;48.792;9.164;2023-01-25T09:47:28;2.00;92.40
152;DHT22;68;48.792;9.164;2023-01-25T09:50:11;2.00;90.20
152;DHT22;68;48.792;9.164;2023-01-25T09:53:06;2.10;92.00
152;DHT22;68;48.792;9.164;2023-01-25T09:55:39;2.20;92.80
152;DHT22;68;48.792;9.164;2023-01-25T09:58:12;2.10;93.00
152;DHT22;68;48.792;9.164;2023-01-25T10:00:43;2.10;92.00
152;DHT22;68;48.792;9.164;2023-01-25T10:03:20;2.10;92.90
152;DHT22;68;48.792;9.164;2023-01-25T10:05:49;2.20;93.30
152;DHT22;68;48.792;9.164;2023-01-25T10:08:22;2.30;93.30
152;DHT22;68;48.792;9.164;2023-01-25T10:10:57;2.60;94.40
152;DHT22;68;48.792;9.164;2023-01-25T10:13:26;2.90;95.60
152;DHT22;68;48.792;9.164;2023-01-25T10:16:00;2.50;97.60
152;DHT22;68;48.792;9.164;2023-01-25T10:18:32;2.40;96.40
152;DHT22;68;48.792;9.164;2023-01-25T10:21:02;2.20;96.10
152;DHT22;68;48.792;9.164;2023-01-25T10:23:47;2.50;95.10
152;DHT22;68;48.792;9.164;2023-01-25T10:26:19;2.40;96.50
152;DHT22;68;48.792;9.164;2023-01-25T10:28:52;2.30;96.00
152;DHT22;68;48.792;9.164;2023-01-25T10:31:27;2.10;94.40
152;DHT22;68;48.792;9.164;2023-01-25T10:33:56;2.00;94.30
152;DHT22;68;48.792;9.164;2023-01-25T10:36:28;2.10;93.40
152;DHT22;68;48.792;9.164;2023-01-25T10:38:56;2.20;94.50
152;DHT22;68;48.792;9.164;2023-01-25T10:41:29;2.10;94.40
152;DHT22;68;48.792;9.164;2023-01-25T10:44:00;2.10;94.50
152;DHT22;68;48.792;9.164;2023-01-25T10:46:48;2.30;94.50
152;DHT22;68;48.792;9.164;2023-01-25T10:49:23;2.60;94.30
152;DHT22;68;48.792;9.164;2023-01-25T10:51:51;2.70;95.50
152;DHT22;68;48.792;9.164;2023-01-25T10:54:17;2.50;97.80
152;DHT22;68;48.792;9.164;2023-01-25T10:56:45;2.30;96.80
152;DHT22;68;48.792;9.164;2023-01-25T10:59:17;2.10;95.70
152;DHT22;68;48.792;9.164;2023-01-25T11:01:46;2.00;95.10
152;DHT22;68;48.792;9.164;2023-01-25T11:04:29;2.00;94.80
152;DHT22;68;48.792;9.164;2023-01-25T11:06:56;2.10;94.90
152;DHT22;68;48.792;9.164;2023-01-25T11:09:32;2.20;96.10
152;DHT22;68;48.792;9.164;2023-01-25T11:12:00;2.10;96.20
152;DHT22;68;48.792;9.164;2023-01-25T11:14:29;2.00;95.40
152;DHT22;68;48.792;9.164;2023-01-25T11:16:57;2.00;94.70
152;DHT22;68;48.792;9.164;2023-01-25T11:19:30;2.00;93.80
152;DHT22;68;48.792;9.164;2023-01-25T11:21:58;2.00;93.60
152;DHT22;68;48.792;9.164;2023-01-25T11:24:27;1.90;92.30
152;DHT22;68;48.792;9.164;2023-01-25T11:27:17;2.00;92.00
152;DHT22;68;48.792;9.164;2023-01-25T11:29:44;2.40;92.40
152;DHT22;68;48.792;9.164;2023-01-25T11:32:16;2.10;95.00
152;DHT22;68;48.792;9.164;2023-01-25T11:34:49;2.10;94.30
152;DHT22;68;48.792;9.164;2023-01-25T11:37:27;2.00;92.80
152;DHT22;68;48.792;9.164;2023-01-25T11:40:06;2.00;94.30
152;DHT22;68;48.792;9.164;2023-01-25T11:42:47;2.00;92.70
152;DHT22;68;48.792;9.164;2023-01-25T11:45:56;2.10;94.30
152;DHT22;68;48.792;9.164;2023-01-25T11:48:42;2.20;93.60
152;DHT22;68;48.792;9.164;2023-01-25T11:51:18;2.40;95.30
152;DHT22;68;48.792;9.164;2023-01-25T11:53:59;2.60;95.90
152;DHT22;68;48.792;9.164;2023-01-25T11:56:38;3.10;96.20
152;DHT22;68;48.792;9.164;2023-01-25T11:59:15;3.20;98.40
152;DHT22;68;48.792;9.164;2023-01-25T12:02:05;2.80;97.90
152;DHT22;68;48.792;9.164;2023-01-25T12:04:50;2.30;96.30
152;DHT22;68;48.792;9.164;2023-01-25T12:07:26;2.10;94.40
152;DHT22;68;48.792;9.164;2023-01-25T12:10:07;2.00;92.60
152;DHT22;68;48.792;9.164;2023-01-25T12:12:46;1.90;90.10
152;DHT22;68;48.792;9.164;2023-01-25T12:15:31;2.10;89.90
152;DHT22;68;48.792;9.164;2023-01-25T12:18:20;1.90;91.10
152;DHT22;68;48.792;9.164;2023-01-25T12:21:09;1.90;90.20
152;DHT22;68;48.792;9.164;2023-01-25T12:23:50;1.80;91.20
152;DHT22;68;48.792;9.164;2023-01-25T12:26:23;2.00;90.70
152;DHT22;68;48.792;9.164;2023-01-25T12:28:58;2.30;91.00
152;DHT22;68;48.792;9.164;2023-01-25T12:31:34;2.30;93.80
152;DHT22;68;48.792;9.164;2023-01-25T12:34:03;2.30;94.60
152;DHT22;68;48.792;9.164;2023-01-25T12:36:36;2.10;93.90
152;DHT22;68;48.792;9.164;2023-01-25T12:39:11;1.90;91.70
152;DHT22;68;48.792;9.164;2023-01-25T12:41:40;1.90;91.00
152;DHT22;68;48.792;9.164;2023-01-25T12:44:15;1.70;90.70
152;DHT22;68;48.792;9.164;2023-01-25T12:46:46;1.70;88.60
152;DHT22;68;48.792;9.164;2023-01-25T12:49:22;1.80;88.50
152;DHT22;68;48.792;9.164;2023-01-25T12:51:50;1.80;88.20
152;DHT22;68;48.792;9.164;2023-01-25T12:54:23;1.80;88.40
152;DHT22;68;48.792;9.164;2023-01-25T12:56:57;2.00;87.80
152;DHT22;68;48.792;9.164;2023-01-25T12:59:35;2.20;89.60
152;DHT22;68;48.792;9.164;2023-01-25T13:02:17;2.10;94.30
152;DHT22;68;48.792;9.164;2023-01-25T13:04:56;2.00;92.50
152;DHT22;68;48.792;9.164;2023-01-25T13:07:32;2.30;91.60
152;DHT22;68;48.792;9.164;2023-01-25T13:10:07;2.20;93.70
152;DHT22;68;48.792;9.164;2023-01-25T13:12:52;2.50;93.30
152;DHT22;68;48.792;9.164;2023-01-25T13:15:37;2.80;94.80
152;DHT22;68;48.792;9.164;2023-01-25T13:18:35;2.60;97.50
152;DHT22;68;48.792;9.164;2023-01-25T13:21:03;2.30;96.20
152;DHT22;68;48.792;9.164;2023-01-25T13:23:34;2.40;94.90
152;DHT22;68;48.792;9.164;2023-01-25T13:26:37;2.60;96.00
152;DHT22;68;48.792;9.164;2023-01-25T13:35:30;2.00;95.20
152;DHT22;68;48.792;9.164;2023-01-25T13:38:04;2.00;93.40
152;DHT22;68;48.792;9.164;2023-01-25T13:40:33;2.40;93.10
152;DHT22;68;48.792;9.164;2023-01-25T13:43:04;2.30;94.90
152;DHT22;68;48.792;9.164;2023-01-25T13:45:33;2.30;94.10
152;DHT22;68;48.792;9.164;2023-01-25T13:48:09;2.60;94.60
152;DHT22;68;48.792;9.164;2023-01-25T13:50:43;2.80;96.70
152;DHT22;68;48.792;9.164;2023-01-25T13:53:18;2.60;97.40
152;DHT22;68;48.792;9.164;2023-01-25T13:55:47;2.60;97.20
152;DHT22;68;48.792;9.164;2023-01-25T13:58:19;2.50;96.90
152;DHT22;68;48.792;9.164;2023-01-25T14:00:52;2.40;96.20
152;DHT22;68;48.792;9.164;2023-01-25T14:03:23;2.30;95.70
152;DHT22;68;48.792;9.164;2023-01-25T14:05:53;2.10;94.40
152;DHT22;68;48.792;9.164;2023-01-25T14:08:20;2.00;93.80
152;DHT22;68;48.792;9.164;2023-01-25T14:10:48;1.90;92.20
152;DHT22;68;48.792;9.164;2023-01-25T14:13:17;1.90;90.70
152;DHT22;68;48.792;9.164;2023-01-25T14:15:54;2.20;91.00
152;DHT22;68;48.792;9.164;2023-01-25T14:18:26;2.10;92.90
152;DHT22;68;48.792;9.164;2023-01-25T14:21:08;1.90;92.50
152;DHT22;68;48.792;9.164;2023-01-25T14:23:36;1.80;89.10
152;DHT22;68;48.792;9.164;2023-01-25T14:26:03;2.20;87.60
152;DHT22;68;48.792;9.164;2023-01-25T14:28:31;2.10;92.60
152;DHT22;68;48.792;9.164;2023-01-25T14:30:58;2.00;92.20
152;DHT22;68;48.792;9.164;2023-01-25T14:33:27;2.00;90.90
152;DHT22;68;48.792;9.164;2023-01-25T14:35:57;1.90;92.00
152;DHT22;68;48.792;9.164;2023-01-25T14:38:33;1.90;90.20
152;DHT22;68;48.792;9.164;2023-01-25T14:41:05;1.90;91.00
152;DHT22;68;48.792;9.164;2023-01-25T14:43:35;1.70;90.10
152;DHT22;68;48.792;9.164;2023-01-25T14:46:20;1.80;87.90
152;DHT22;68;48.792;9.164;2023-01-25T14:48:48;1.80;88.30
152;DHT22;68;48.792;9.164;2023-01-25T14:51:22;1.90;89.70
152;DHT22;68;48.792;9.164;2023-01-25T14:53:55;1.90;90.20
152;DHT22;68;48.792;9.164;2023-01-25T14:56:31;1.80;91.20
152;DHT22;68;48.792;9.164;2023-01-25T14:59:00;1.80;89.70
152;DHT22;68;48.792;9.164;2023-01-25T15:01:31;2.00;91.10
152;DHT22;68;48.792;9.164;2023-01-25T15:03:58;2.20;93.60
152;DHT22;68;48.792;9.164;2023-01-25T15:06:25;2.10;94.30
152;DHT22;68;48.792;9.164;2023-01-25T15:08:52;2.00;94.40
152;DHT22;68;48.792;9.164;2023-01-25T15:11:27;2.00;93.50
152;DHT22;68;48.792;9.164;2023-01-25T15:14:15;2.00;91.80
152;DHT22;68;48.792;9.164;2023-01-25T15:16:42;1.90;91.70
152;DHT22;68;48.792;9.164;2023-01-25T15:19:27;1.90;89.90
152;DHT22;68;48.792;9.164;2023-01-25T15:21:56;1.90;90.70
152;DHT22;68;48.792;9.164;2023-01-25T15:24:24;2.00;90.60
152;DHT22;68;48.792;9.164;2023-01-25T15:26:52;2.10;91.70
152;DHT22;68;48.792;9.164;2023-01-25T15:29:22;2.30;93.20
152;DHT22;68;48.792;9.164;2023-01-25T15:31:52;2.30;94.70
152;DHT22;68;48.792;9.164;2023-01-25T15:34:22;2.30;95.20
152;DHT22;68;48.792;9.164;2023-01-25T15:36:50;2.40;95.50
152;DHT22;68;48.792;9.164;2023-01-25T15:39:18;2.50;96.30
152;DHT22;68;48.792;9.164;2023-01-25T15:41:46;2.50;96.70
152;DHT22;68;48.792;9.164;2023-01-25T15:44:13;2.70;97.00
152;DHT22;68;48.792;9.164;2023-01-25T15:46:45;2.70;97.60
152;DHT22;68;48.792;9.164;2023-01-25T15:49:17;2.70;97.50
152;DHT22;68;48.792;9.164;2023-01-25T15:51:46;2.60;97.80
152;DHT22;68;48.792;9.164;2023-01-25T15:54:13;2.40;97.50
152;DHT22;68;48.792;9.164;2023-01-25T15:56:40;2.20;96.60
152;DHT22;68;48.792;9.164;2023-01-25T15:59:14;2.50;95.80
152;DHT22;68;48.792;9.164;2023-01-25T16:01:42;2.70;95.80
152;DHT22;68;48.792;9.164;2023-01-25T16:04:10;2.70;97.00
152;DHT22;68;48.792;9.164;2023-01-25T16:06:39;2.50;97.00
152;DHT22;68;48.792;9.164;2023-01-25T16:09:16;2.10;95.90
152;DHT22;68;48.792;9.164;2023-01-25T16:11:43;2.30;94.80
152;DHT22;68;48.792;9.164;2023-01-25T16:14:10;2.50;94.90
152;DHT22;68;48.792;9.164;2023-01-25T16:16:39;2.50;96.10
152;DHT22;68;48.792;9.164;2023-01-25T16:19:09;2.60;96.50
152;DHT22;68;48.792;9.164;2023-01-25T16:21:37;2.50;96.40
152;DHT22;68;48.792;9.164;2023-01-25T16:24:05;2.40;95.70
152;DHT22;68;48.792;9.164;2023-01-25T16:26:32;2.50;95.80
152;DHT22;68;48.792;9.164;2023-01-25T16:28:59;2.10;95.70
152;DHT22;68;48.792;9.164;2023-01-25T16:31:26;1.90;94.00
152;DHT22;68;48.792;9.164;2023-01-25T16:33:52;2.00;92.90
152;DHT22;68;48.792;9.164;2023-01-25T16:36:22;1.90;92.40
152;DHT22;68;48.792;9.164;2023-01-25T16:38:49;2.30;91.30
152;DHT22;68;48.792;9.164;2023-01-25T16:41:16;2.40;93.20
152;DHT22;68;48.792;9.164;2023-01-25T16:43:44;2.40;95.20
152;DHT22;68;48.792;9.164;2023-01-25T16:46:16;2.20;94.70
152;DHT22;68;48.792;9.164;2023-01-25T16:48:44;2.30;94.00
152;DHT22;68;48.792;9.164;2023-01-25T16:51:15;2.70;94.20
152;DHT22;68;48.792;9.164;2023-01-25T16:53:45;2.90;95.80
152;DHT22;68;48.792;9.164;2023-01-25T16:56:18;2.80;97.50
152;DHT22;68;48.792;9.164;2023-01-25T16:58:47;2.70;96.90
152;DHT22;68;48.792;9.164;2023-01-25T17:01:15;2.80;97.00
152;DHT22;68;48.792;9.164;2023-01-25T17:03:42;2.90;96.90
152;DHT22;68;48.792;9.164;2023-01-25T17:06:15;3.10;97.60
152;DHT22;68;48.792;9.164;2023-01-25T17:08:44;3.30;98.10
152;DHT22;68;48.792;9.164;2023-01-25T17:11:11;2.90;97.90
152;DHT22;68;48.792;9.164;2023-01-25T17:13:38;2.50;97.40
152;DHT22;68;48.792;9.164;2023-01-25T17:16:05;2.40;97.00
152;DHT22;68;48.792;9.164;2023-01-25T17:18:32;2.40;96.40
152;DHT22;68;48.792;9.164;2023-01-25T17:21:01;2.00;95.90
152;DHT22;68;48.792;9.164;2023-01-25T17:23:29;1.90;94.30
152;DHT22;68;48.792;9.164;2023-01-25T17:25:57;1.50;89.90
152;DHT22;68;48.792;9.164;2023-01-25T17:28:24;1.50;87.10
152;DHT22;68;48.792;9.164;2023-01-25T17:30:51;1.50;85.20
152;DHT22;68;48.792;9.164;2023-01-25T17:33:18;1.70;84.60
152;DHT22;68;48.792;9.164;2023-01-25T17:35:45;1.90;86.80
152;DHT22;68;48.792;9.164;2023-01-25T17:38:11;2.20;88.90
152;DHT22;68;48.792;9.164;2023-01-25T17:40:38;2.40;91.40